Gypsy, West Virginia
Current Conditions -  °F | °C
As of 2:53 PM on Friday 24 Oct 2014 (Local Time) from KCKB Reporting Station
Clear Clear  
Wind Chill: 58°   Ceiling: Unl
Heat Index: 58°   Visibility: 10mi
Dew Point: 42°   Wind: 5mph
Humidity: 56%   Direction: 240°WSW
Pressure: 30.04"   Gusts: NA
Location:  39.37°N, 80.32°W
Report Text: KCKB 241853Z 24004KT 10SM CLR 14/06 A3004 RMK AO2 SLP169 T01440056
Loading
Personal Weather Stations






























Interactive Weather Map
Tropical Storm Tracking
New forecast layout! Learn more

10-Day Weather Forecast

Advertisements
Track Severe Weather on mobile